createdAt,value
2022-08-31T00:00:48.046Z,14.78
2022-08-31T00:03:32.618Z,14.83
2022-08-31T00:06:00.460Z,14.78
2022-08-31T00:08:27.113Z,14.75
2022-08-31T00:10:55.294Z,14.73
2022-08-31T00:13:25.529Z,14.78
2022-08-31T00:15:53.241Z,14.65
2022-08-31T00:18:20.077Z,14.63
2022-08-31T00:20:47.059Z,14.64
2022-08-31T00:23:14.752Z,14.69
2022-08-31T00:25:42.448Z,14.55
2022-08-31T00:28:10.012Z,14.65
2022-08-31T00:30:36.591Z,14.53
2022-08-31T00:33:03.341Z,14.55
2022-08-31T00:35:30.596Z,14.63
2022-08-31T00:37:57.397Z,14.55
2022-08-31T00:40:24.240Z,14.62
2022-08-31T00:42:50.764Z,14.56
2022-08-31T00:45:17.413Z,14.63
2022-08-31T00:47:43.844Z,14.50
2022-08-31T00:50:12.335Z,14.51
2022-08-31T00:52:41.014Z,14.41
2022-08-31T00:55:07.581Z,14.31
2022-08-31T00:57:35.319Z,14.34
2022-08-31T01:00:04.070Z,14.28
2022-08-31T01:02:31.619Z,14.32
2022-08-31T01:04:58.030Z,14.26
2022-08-31T01:07:24.814Z,14.32
2022-08-31T01:09:55.460Z,14.28
2022-08-31T01:12:22.170Z,14.15
2022-08-31T01:14:48.654Z,14.23
2022-08-31T01:17:15.112Z,14.15
2022-08-31T01:19:53.692Z,14.24
2022-08-31T01:22:55.624Z,14.22
2022-08-31T01:25:22.174Z,14.20
2022-08-31T01:27:48.621Z,14.32
2022-08-31T01:30:21.026Z,14.33
2022-08-31T01:32:47.490Z,14.34
2022-08-31T01:35:13.867Z,14.30
2022-08-31T01:37:40.224Z,14.41
2022-08-31T01:40:07.265Z,14.40
2022-08-31T01:42:34.313Z,14.40
2022-08-31T01:45:01.056Z,14.22
2022-08-31T01:47:27.394Z,14.23
2022-08-31T01:49:55.321Z,14.25
2022-08-31T01:52:24.303Z,14.33
2022-08-31T01:54:54.025Z,14.35
2022-08-31T01:57:21.768Z,14.31
2022-08-31T02:00:01.175Z,14.43
2022-08-31T02:02:27.594Z,14.29
2022-08-31T02:04:54.052Z,14.12
2022-08-31T02:07:20.535Z,14.16
2022-08-31T02:09:46.877Z,14.25
2022-08-31T02:12:13.253Z,14.17
2022-08-31T02:14:39.651Z,14.18
2022-08-31T02:17:06.013Z,14.15
2022-08-31T02:19:32.351Z,14.16
2022-08-31T02:21:59.107Z,14.15
2022-08-31T02:24:25.562Z,14.07
2022-08-31T02:26:53.963Z,14.09
2022-08-31T02:29:20.570Z,13.97
2022-08-31T02:31:46.987Z,14.03
2022-08-31T02:34:14.026Z,13.88
2022-08-31T02:36:42.601Z,13.91
2022-08-31T02:39:08.954Z,13.87
2022-08-31T02:41:35.369Z,13.87
2022-08-31T02:44:02.393Z,13.86
2022-08-31T02:46:28.794Z,13.82
2022-08-31T02:48:55.177Z,13.85
2022-08-31T02:51:21.534Z,13.84
2022-08-31T02:53:47.912Z,13.75
2022-08-31T02:56:14.394Z,13.80
2022-08-31T02:58:41.109Z,13.77
2022-08-31T03:01:07.490Z,13.76
2022-08-31T03:03:34.781Z,13.70
2022-08-31T03:06:01.614Z,13.67
2022-08-31T03:08:28.306Z,13.70
2022-08-31T03:10:57.726Z,13.81
2022-08-31T03:13:24.061Z,13.65
2022-08-31T03:15:50.480Z,13.74
2022-08-31T03:18:16.833Z,13.70
2022-08-31T03:20:43.187Z,13.71
2022-08-31T03:23:09.631Z,13.68
2022-08-31T03:25:36.271Z,13.63
2022-08-31T03:28:06.786Z,13.62
2022-08-31T03:30:33.267Z,13.61
2022-08-31T03:33:02.689Z,13.65
2022-08-31T03:35:29.515Z,13.64
2022-08-31T03:37:56.339Z,13.70
2022-08-31T03:40:22.966Z,13.72
2022-08-31T03:42:49.982Z,13.71
2022-08-31T03:45:16.595Z,13.72
2022-08-31T03:47:44.874Z,13.71
2022-08-31T03:50:12.081Z,13.75
2022-08-31T03:52:38.726Z,13.66
2022-08-31T03:55:05.672Z,13.75
2022-08-31T03:57:32.206Z,13.72
2022-08-31T03:59:58.637Z,13.73
2022-08-31T04:02:25.084Z,13.63
2022-08-31T04:04:52.489Z,13.65
2022-08-31T04:07:19.101Z,13.59
2022-08-31T04:09:47.825Z,13.64
2022-08-31T04:12:15.060Z,13.65
2022-08-31T04:14:41.464Z,13.69
2022-08-31T04:17:11.728Z,13.71
2022-08-31T04:19:38.560Z,13.62
2022-08-31T04:22:04.928Z,13.65
2022-08-31T04:24:31.284Z,13.63
2022-08-31T04:26:59.062Z,13.63
2022-08-31T04:29:25.379Z,13.63
2022-08-31T04:31:51.751Z,13.70
2022-08-31T04:34:18.180Z,13.54
2022-08-31T04:36:45.366Z,13.54
2022-08-31T04:39:12.365Z,13.52
2022-08-31T04:41:40.490Z,13.57
2022-08-31T04:44:07.422Z,13.65
2022-08-31T04:46:35.417Z,13.45
2022-08-31T04:49:01.881Z,13.50
2022-08-31T04:51:30.938Z,13.43
2022-08-31T04:53:57.731Z,13.43
2022-08-31T04:56:28.628Z,13.51
2022-08-31T04:58:57.048Z,13.50
2022-08-31T05:01:26.247Z,13.42
2022-08-31T05:03:55.054Z,13.40
2022-08-31T05:06:22.360Z,13.43
2022-08-31T05:08:52.138Z,13.37
2022-08-31T05:11:24.270Z,13.39
2022-08-31T05:13:52.635Z,13.57
2022-08-31T05:16:19.643Z,13.37
2022-08-31T05:18:47.206Z,13.58
2022-08-31T05:21:20.484Z,13.61
2022-08-31T05:23:48.487Z,13.59
2022-08-31T05:26:21.549Z,13.66
2022-08-31T05:28:49.984Z,13.75
2022-08-31T05:31:16.643Z,13.75
2022-08-31T05:33:43.832Z,13.75
2022-08-31T05:36:11.294Z,13.74
2022-08-31T05:38:37.889Z,13.78
2022-08-31T05:41:06.076Z,13.85
2022-08-31T05:43:32.600Z,13.78
2022-08-31T05:45:59.075Z,13.88
2022-08-31T05:48:30.056Z,13.79
2022-08-31T05:50:59.830Z,13.93
2022-08-31T05:53:27.082Z,13.87
2022-08-31T05:56:03.963Z,13.91
2022-08-31T05:58:30.517Z,13.69
2022-08-31T06:00:57.271Z,13.66
2022-08-31T06:03:23.647Z,13.94
2022-08-31T06:05:53.082Z,13.72
2022-08-31T06:08:19.796Z,13.81
2022-08-31T06:10:54.123Z,13.56
2022-08-31T06:13:21.019Z,13.59
2022-08-31T06:15:47.689Z,13.58
2022-08-31T06:18:14.095Z,13.56
2022-08-31T06:20:40.461Z,13.53
2022-08-31T06:23:08.338Z,13.74
2022-08-31T06:25:36.604Z,13.50
2022-08-31T06:28:07.258Z,13.73
2022-08-31T06:30:54.350Z,13.95
2022-08-31T06:33:21.562Z,14.00
2022-08-31T06:35:48.139Z,14.03
2022-08-31T06:38:14.497Z,13.86
2022-08-31T06:40:40.936Z,14.19
2022-08-31T06:43:07.812Z,14.36
2022-08-31T06:45:34.211Z,14.27
2022-08-31T06:48:00.791Z,14.43
2022-08-31T06:50:27.248Z,14.56
2022-08-31T06:52:55.551Z,14.62
2022-08-31T06:55:22.199Z,14.76
2022-08-31T06:57:48.688Z,14.75
2022-08-31T07:00:15.315Z,14.69
2022-08-31T07:02:41.743Z,14.77
2022-08-31T07:05:11.458Z,14.70
2022-08-31T07:07:40.213Z,14.98
2022-08-31T07:10:10.307Z,14.96
2022-08-31T07:12:36.764Z,14.97
2022-08-31T07:15:03.358Z,15.12
2022-08-31T07:17:29.768Z,15.14
2022-08-31T07:19:56.215Z,15.26
2022-08-31T07:22:22.747Z,15.41
2022-08-31T07:24:49.151Z,15.51
2022-08-31T07:27:16.527Z,15.50
2022-08-31T07:29:43.058Z,15.65
2022-08-31T07:32:10.751Z,15.71
2022-08-31T07:34:37.319Z,15.76
2022-08-31T07:37:22.932Z,15.91
2022-08-31T07:40:08.483Z,15.95
2022-08-31T07:42:39.862Z,16.09
2022-08-31T07:45:10.169Z,16.05
2022-08-31T07:47:46.067Z,16.03
2022-08-31T07:50:13.885Z,16.03
2022-08-31T07:52:47.083Z,16.17
2022-08-31T07:55:15.113Z,16.24
2022-08-31T07:57:44.080Z,16.28
2022-08-31T08:00:12.917Z,16.44
2022-08-31T08:02:39.812Z,16.41
2022-08-31T08:05:07.480Z,16.46
2022-08-31T08:07:35.270Z,16.55
2022-08-31T08:10:02.640Z,16.57
2022-08-31T08:12:29.054Z,16.58
2022-08-31T08:14:58.969Z,16.66
2022-08-31T08:17:25.361Z,16.69
2022-08-31T08:19:51.782Z,16.75
2022-08-31T08:22:35.674Z,16.77
2022-08-31T08:25:06.939Z,16.71
2022-08-31T08:27:33.924Z,16.74
2022-08-31T08:30:00.332Z,16.81
2022-08-31T08:32:26.868Z,16.80
2022-08-31T08:34:53.271Z,16.92
2022-08-31T08:37:31.031Z,17.08
2022-08-31T08:40:06.829Z,16.96
2022-08-31T08:42:33.519Z,17.09
2022-08-31T08:44:59.954Z,17.16
2022-08-31T08:47:37.636Z,17.00
2022-08-31T08:50:07.195Z,17.09
2022-08-31T08:52:43.882Z,17.16
2022-08-31T08:55:12.292Z,17.16
2022-08-31T08:57:40.290Z,17.11
2022-08-31T09:00:13.015Z,17.28
2022-08-31T09:02:57.989Z,17.29
2022-08-31T09:05:34.977Z,17.30
2022-08-31T09:08:01.402Z,17.31
2022-08-31T09:10:38.970Z,17.36
2022-08-31T09:13:25.608Z,17.41
2022-08-31T09:15:56.201Z,17.49
2022-08-31T09:18:26.347Z,17.44
2022-08-31T09:21:01.824Z,17.45
2022-08-31T09:23:29.922Z,17.56
2022-08-31T09:25:58.463Z,17.57
2022-08-31T09:28:36.175Z,17.59
2022-08-31T09:31:03.097Z,17.53
2022-08-31T09:33:31.444Z,17.57
2022-08-31T09:36:41.003Z,17.39
2022-08-31T09:39:15.017Z,17.52
2022-08-31T09:41:42.066Z,17.55
2022-08-31T09:44:21.725Z,17.40
2022-08-31T09:46:49.602Z,17.48
2022-08-31T09:49:25.056Z,17.56
2022-08-31T09:51:52.165Z,17.60
2022-08-31T09:54:46.198Z,17.51
2022-08-31T09:57:13.882Z,17.51
2022-08-31T09:59:48.265Z,17.55
2022-08-31T10:02:26.551Z,17.59
2022-08-31T10:04:55.209Z,17.67
2022-08-31T10:07:24.933Z,17.56
2022-08-31T10:09:57.537Z,17.62
2022-08-31T10:12:36.217Z,17.69
2022-08-31T10:15:15.382Z,17.69
2022-08-31T10:17:45.223Z,17.66
2022-08-31T10:20:18.521Z,17.75
2022-08-31T10:23:08.781Z,17.79
2022-08-31T10:25:42.870Z,17.86
2022-08-31T10:28:14.752Z,17.89
2022-08-31T10:30:42.172Z,17.91
2022-08-31T10:33:14.827Z,17.96
2022-08-31T10:35:48.841Z,18.01
2022-08-31T10:38:24.084Z,18.12
2022-08-31T10:41:00.772Z,18.11
2022-08-31T10:43:41.988Z,18.19
2022-08-31T10:46:08.448Z,18.19
2022-08-31T10:48:37.751Z,18.24
2022-08-31T10:51:19.338Z,18.24
2022-08-31T10:53:52.198Z,18.17
2022-08-31T10:56:39.742Z,18.14
2022-08-31T10:59:12.754Z,18.18
2022-08-31T11:01:56.068Z,18.17
2022-08-31T11:04:29.331Z,18.13
2022-08-31T11:07:00.625Z,18.17
2022-08-31T11:09:34.593Z,18.31
2022-08-31T11:12:07.081Z,18.28
2022-08-31T11:14:45.670Z,18.28
2022-08-31T11:17:38.410Z,18.28
2022-08-31T11:20:19.820Z,18.31
2022-08-31T11:23:05.591Z,18.31
2022-08-31T11:25:31.944Z,18.39
2022-08-31T11:28:13.753Z,18.36
2022-08-31T11:30:45.805Z,18.29
2022-08-31T11:33:22.214Z,18.31
2022-08-31T11:36:04.074Z,18.32
2022-08-31T11:38:45.134Z,18.47
2022-08-31T11:41:31.431Z,18.43
2022-08-31T11:43:57.835Z,18.42
2022-08-31T11:46:27.674Z,18.52
2022-08-31T11:48:54.832Z,18.51
2022-08-31T11:51:36.039Z,18.50
2022-08-31T11:54:11.294Z,18.50
2022-08-31T11:56:39.289Z,18.49
2022-08-31T11:59:27.315Z,18.53
2022-08-31T12:01:58.250Z,18.54
2022-08-31T12:04:41.954Z,18.63
2022-08-31T12:07:11.087Z,18.61
2022-08-31T12:09:37.959Z,18.63
2022-08-31T12:12:25.025Z,18.46
2022-08-31T12:14:51.395Z,18.45
2022-08-31T12:17:21.726Z,18.46
2022-08-31T12:20:02.303Z,18.52
2022-08-31T12:22:47.413Z,18.61
2022-08-31T12:25:22.740Z,18.59
2022-08-31T12:28:05.556Z,18.58
2022-08-31T12:30:32.155Z,18.60
2022-08-31T12:33:08.073Z,18.64
2022-08-31T12:35:36.729Z,18.71
2022-08-31T12:38:04.707Z,18.80
2022-08-31T12:40:33.051Z,18.72
2022-08-31T12:43:08.581Z,18.82
2022-08-31T12:45:38.019Z,18.76
2022-08-31T12:48:23.080Z,18.75
2022-08-31T12:50:56.844Z,18.79
2022-08-31T12:53:38.012Z,18.81
2022-08-31T12:56:10.290Z,18.86
2022-08-31T12:58:51.841Z,18.87
2022-08-31T13:01:21.118Z,18.82
2022-08-31T13:03:54.024Z,18.77
2022-08-31T13:06:26.335Z,18.75
2022-08-31T13:08:56.159Z,18.72
2022-08-31T13:11:26.142Z,18.69
2022-08-31T13:14:09.840Z,18.72
2022-08-31T13:16:38.866Z,18.84
2022-08-31T13:19:06.970Z,18.83
2022-08-31T13:21:33.932Z,18.86
2022-08-31T13:24:07.101Z,18.78
2022-08-31T13:26:36.446Z,18.76
2022-08-31T13:29:07.494Z,18.74
2022-08-31T13:31:36.012Z,18.78
2022-08-31T13:34:07.218Z,18.77
2022-08-31T13:36:37.849Z,18.72
2022-08-31T13:39:15.745Z,18.67
2022-08-31T13:41:54.441Z,18.83
2022-08-31T13:44:22.489Z,18.76
2022-08-31T13:47:01.016Z,18.75
2022-08-31T13:49:35.641Z,18.71
2022-08-31T13:52:21.221Z,18.73
2022-08-31T13:54:58.541Z,18.87
2022-08-31T13:57:34.895Z,18.81
2022-08-31T14:00:20.599Z,18.67
2022-08-31T14:02:47.034Z,18.75
2022-08-31T14:05:28.074Z,18.80
2022-08-31T14:07:56.471Z,18.71
2022-08-31T14:10:26.129Z,18.71
2022-08-31T14:12:57.369Z,18.76
2022-08-31T14:15:36.015Z,18.73
2022-08-31T14:18:24.462Z,18.82
2022-08-31T14:21:23.799Z,18.80
2022-08-31T14:23:53.574Z,18.87
2022-08-31T14:26:21.457Z,18.93
2022-08-31T14:28:49.977Z,18.93
2022-08-31T14:31:31.534Z,19.00
2022-08-31T14:34:23.220Z,19.11
2022-08-31T14:36:57.849Z,19.11
2022-08-31T14:39:32.773Z,19.14
2022-08-31T14:42:06.087Z,19.00
2022-08-31T14:44:33.998Z,19.05
2022-08-31T14:47:00.912Z,19.07
2022-08-31T14:49:31.551Z,19.06
2022-08-31T14:52:06.102Z,19.12
2022-08-31T14:54:35.009Z,19.15
2022-08-31T14:57:06.071Z,19.15
2022-08-31T14:59:33.124Z,19.14
2022-08-31T15:01:59.490Z,19.19
2022-08-31T15:04:28.295Z,19.17
2022-08-31T15:07:09.666Z,19.10
2022-08-31T15:09:40.445Z,19.07
2022-08-31T15:12:07.963Z,19.04
2022-08-31T15:14:37.956Z,19.00
2022-08-31T15:17:06.688Z,19.02
2022-08-31T15:19:39.166Z,19.04
2022-08-31T15:22:09.133Z,18.96
2022-08-31T15:24:36.562Z,18.89
2022-08-31T15:27:03.168Z,18.71
2022-08-31T15:29:30.895Z,18.77
2022-08-31T15:31:58.513Z,18.77
2022-08-31T15:34:30.123Z,18.74
2022-08-31T15:37:02.153Z,18.66
2022-08-31T15:39:34.943Z,18.71
2022-08-31T15:42:08.977Z,18.75
2022-08-31T15:44:36.239Z,18.81
2022-08-31T15:47:21.835Z,18.74
2022-08-31T15:49:48.211Z,18.82
2022-08-31T15:52:14.622Z,18.89
2022-08-31T15:54:41.193Z,18.91
2022-08-31T15:57:08.003Z,18.85
2022-08-31T15:59:43.476Z,19.05
2022-08-31T16:02:13.190Z,18.98
2022-08-31T16:04:43.209Z,19.00
2022-08-31T16:07:10.990Z,19.03
2022-08-31T16:09:40.801Z,19.01
2022-08-31T16:12:10.878Z,19.04
2022-08-31T16:14:38.318Z,19.01
2022-08-31T16:17:06.017Z,19.10
2022-08-31T16:19:35.990Z,19.05
2022-08-31T16:22:03.474Z,19.04
2022-08-31T16:24:35.930Z,19.00
2022-08-31T16:27:02.955Z,18.91
2022-08-31T16:29:32.347Z,19.02
2022-08-31T16:31:58.783Z,19.03
2022-08-31T16:34:25.551Z,18.89
2022-08-31T16:36:52.942Z,18.90
2022-08-31T16:39:19.825Z,18.88
2022-08-31T16:41:46.570Z,18.92
2022-08-31T16:44:19.986Z,18.70
2022-08-31T16:46:46.935Z,18.76
2022-08-31T16:49:31.743Z,18.79
2022-08-31T16:52:00.606Z,18.76
2022-08-31T16:54:28.554Z,18.60
2022-08-31T16:56:57.463Z,18.66
2022-08-31T16:59:25.451Z,18.65
2022-08-31T17:01:51.857Z,18.67
2022-08-31T17:04:41.191Z,18.57
2022-08-31T17:07:06.364Z,18.51
2022-08-31T17:09:32.772Z,18.37
2022-08-31T17:12:00.636Z,18.22
2022-08-31T17:14:32.153Z,18.45
2022-08-31T17:17:03.370Z,18.28
2022-08-31T17:19:31.253Z,18.34
2022-08-31T17:21:59.220Z,18.45
2022-08-31T17:24:28.270Z,18.38
2022-08-31T17:26:59.650Z,18.32
2022-08-31T17:29:27.430Z,18.22
2022-08-31T17:31:55.677Z,18.27
2022-08-31T17:34:23.804Z,18.36
2022-08-31T17:36:50.847Z,18.16
2022-08-31T17:39:18.163Z,18.15
2022-08-31T17:41:45.224Z,18.14
2022-08-31T17:44:16.393Z,18.20
2022-08-31T17:46:43.866Z,18.20
2022-08-31T17:49:10.572Z,18.23
2022-08-31T17:51:38.471Z,18.22
2022-08-31T17:54:07.572Z,18.24
2022-08-31T17:56:47.609Z,18.23
2022-08-31T17:59:16.497Z,18.26
2022-08-31T18:01:43.081Z,18.34
2022-08-31T18:04:09.503Z,18.37
2022-08-31T18:06:36.034Z,18.36
2022-08-31T18:09:02.455Z,18.28
2022-08-31T18:11:29.154Z,18.29
2022-08-31T18:13:55.897Z,18.27
2022-08-31T18:16:22.350Z,18.28
2022-08-31T18:18:49.601Z,18.23
2022-08-31T18:21:17.127Z,18.19
2022-08-31T18:23:43.525Z,18.00
2022-08-31T18:26:35.996Z,18.03
2022-08-31T18:29:04.001Z,18.05
2022-08-31T18:31:30.684Z,17.88
2022-08-31T18:33:58.135Z,17.80
2022-08-31T18:36:25.876Z,17.76
2022-08-31T18:38:53.685Z,17.58
2022-08-31T18:41:39.545Z,17.59
2022-08-31T18:44:24.851Z,17.48
2022-08-31T18:46:51.420Z,17.42
2022-08-31T18:49:22.143Z,17.40
2022-08-31T18:51:52.692Z,17.47
2022-08-31T18:54:20.363Z,17.33
2022-08-31T18:56:47.250Z,17.31
2022-08-31T18:59:14.005Z,17.14
2022-08-31T19:01:40.469Z,17.00
2022-08-31T19:04:07.477Z,17.01
2022-08-31T19:06:34.587Z,16.91
2022-08-31T19:09:01.780Z,16.90
2022-08-31T19:11:28.161Z,16.86
2022-08-31T19:13:54.665Z,16.83
2022-08-31T19:16:22.520Z,16.74
2022-08-31T19:18:49.047Z,16.78
2022-08-31T19:21:17.261Z,16.65
2022-08-31T19:23:44.077Z,16.69
2022-08-31T19:26:10.457Z,16.73
2022-08-31T19:28:36.827Z,16.65
2022-08-31T19:31:03.209Z,16.64
2022-08-31T19:33:29.843Z,16.66
2022-08-31T19:36:03.530Z,16.79
2022-08-31T19:38:31.358Z,16.91
2022-08-31T19:40:58.344Z,16.87
2022-08-31T19:46:16.004Z,16.99
2022-08-31T19:48:44.459Z,17.06
2022-08-31T19:51:11.866Z,17.19
2022-08-31T19:53:42.525Z,17.14
2022-08-31T19:56:16.010Z,17.26
2022-08-31T19:58:42.985Z,17.22
2022-08-31T20:01:10.382Z,17.27
2022-08-31T20:03:37.288Z,17.39
2022-08-31T20:06:07.821Z,17.38
2022-08-31T20:08:35.421Z,17.35
2022-08-31T20:11:02.532Z,17.26
2022-08-31T20:13:28.973Z,17.27
2022-08-31T20:15:56.111Z,17.20
2022-08-31T20:18:23.606Z,17.05
2022-08-31T20:20:51.021Z,17.03
2022-08-31T20:23:18.807Z,16.77
2022-08-31T20:25:46.506Z,16.94
2022-08-31T20:28:13.250Z,16.72
2022-08-31T20:30:40.768Z,16.75
2022-08-31T20:33:08.144Z,16.72
2022-08-31T20:35:36.336Z,16.75
2022-08-31T20:38:02.858Z,16.55
2022-08-31T20:40:29.570Z,16.62
2022-08-31T20:42:56.093Z,16.57
2022-08-31T20:45:22.922Z,16.60
2022-08-31T20:48:07.774Z,16.57
2022-08-31T20:50:35.264Z,16.67
2022-08-31T20:53:01.768Z,16.60
2022-08-31T20:55:28.138Z,16.56
2022-08-31T20:57:54.898Z,16.49
2022-08-31T21:00:21.331Z,16.51
2022-08-31T21:02:49.918Z,16.44
2022-08-31T21:08:04.304Z,16.46
2022-08-31T21:10:36.242Z,16.62
2022-08-31T21:13:03.664Z,16.72
2022-08-31T21:15:30.074Z,16.52
2022-08-31T21:17:57.000Z,16.67
2022-08-31T21:20:25.435Z,16.38
2022-08-31T21:22:51.976Z,16.31
2022-08-31T21:25:18.713Z,16.37
2022-08-31T21:27:47.037Z,16.34
2022-08-31T21:30:13.576Z,16.38
2022-08-31T21:32:40.619Z,16.35
2022-08-31T21:35:09.953Z,16.35
2022-08-31T21:37:36.301Z,16.51
2022-08-31T21:40:03.550Z,16.68
2022-08-31T21:42:30.077Z,16.62
2022-08-31T21:44:56.404Z,16.66
2022-08-31T21:47:22.807Z,16.73
2022-08-31T21:49:53.208Z,16.67
2022-08-31T21:52:19.645Z,16.73
2022-08-31T21:54:47.899Z,16.76
2022-08-31T21:57:15.571Z,16.78
2022-08-31T21:59:42.052Z,16.88
2022-08-31T22:02:11.090Z,16.80
2022-08-31T22:04:39.438Z,16.78
2022-08-31T22:07:09.492Z,16.63
2022-08-31T22:09:36.439Z,16.67
2022-08-31T22:12:07.313Z,16.57
2022-08-31T22:14:37.897Z,16.40
2022-08-31T22:17:06.963Z,16.38
2022-08-31T22:19:36.004Z,16.48
2022-08-31T22:22:05.073Z,16.33
2022-08-31T22:24:32.542Z,16.29
2022-08-31T22:27:01.580Z,16.50
2022-08-31T22:29:29.835Z,16.33
2022-08-31T22:31:58.388Z,16.22
2022-08-31T22:34:25.242Z,16.08
2022-08-31T22:36:52.260Z,16.07
2022-08-31T22:39:23.086Z,15.95
2022-08-31T22:41:49.909Z,16.03
2022-08-31T22:44:18.308Z,15.82
2022-08-31T22:46:45.319Z,15.83
2022-08-31T22:49:12.722Z,15.71
2022-08-31T22:51:40.762Z,15.70
2022-08-31T22:54:07.841Z,15.84
2022-08-31T22:56:35.063Z,15.76
2022-08-31T22:59:05.263Z,15.94
2022-08-31T23:01:33.418Z,15.71
2022-08-31T23:04:01.295Z,15.54
2022-08-31T23:06:29.860Z,15.61
2022-08-31T23:08:57.325Z,15.72
2022-08-31T23:11:24.542Z,15.66
2022-08-31T23:13:52.696Z,15.56
2022-08-31T23:16:25.005Z,15.64
2022-08-31T23:18:52.256Z,15.55
2022-08-31T23:21:18.966Z,15.62
2022-08-31T23:23:45.774Z,15.70
2022-08-31T23:26:12.522Z,15.84
2022-08-31T23:28:39.680Z,15.87
2022-08-31T23:31:09.912Z,15.91
2022-08-31T23:33:36.408Z,15.97
2022-08-31T23:36:03.703Z,15.94
2022-08-31T23:38:31.121Z,16.09
2022-08-31T23:40:57.581Z,16.04
2022-08-31T23:43:25.030Z,15.97
2022-08-31T23:45:52.432Z,15.95
2022-08-31T23:48:19.242Z,16.14
2022-08-31T23:50:46.301Z,16.15
2022-08-31T23:53:14.594Z,16.17
2022-08-31T23:55:44.759Z,16.13
2022-08-31T23:58:14.009Z,16.08
